Time;durP1;ratioP1;P1;durP2;ratioP2;P2;SDS_P1;SDS_P2;PMS_P1;PMS_P2;Temp;Humidity;BMP_temperature;BMP_pressure;BME280_temperature;BME280_humidity;BME280_pressure;Samples;Min_cycle;Max_cycle;Signal;HPM_P1;HPM_P2
2021/05/03 00:01:58;;;;;;;24.30;21.80;;;6.20;99.90;;;;;;5072565;28;20175;-45
2021/05/03 00:04:24;;;;;;;22.00;19.70;;;6.30;99.90;;;;;;5073248;28;20588;-42
2021/05/03 00:06:49;;;;;;;22.07;19.87;;;6.20;99.90;;;;;;5073298;28;20201;-42
2021/05/03 00:09:15;;;;;;;23.60;21.10;;;6.20;99.90;;;;;;5073594;28;20182;-44
2021/05/03 00:11:41;;;;;;;24.00;21.43;;;6.20;99.90;;;;;;5073582;28;20178;-43
2021/05/03 00:14:06;;;;;;;23.13;20.73;;;6.30;99.90;;;;;;5073567;28;20237;-48
2021/05/03 00:16:32;;;;;;;23.13;20.63;;;6.30;99.90;;;;;;5073632;28;20247;-49
2021/05/03 00:18:58;;;;;;;21.97;19.67;;;6.30;99.90;;;;;;5073771;28;20181;-41
2021/05/03 00:21:23;;;;;;;22.47;20.03;;;6.30;99.90;;;;;;5073582;28;20186;-48
2021/05/03 00:23:49;;;;;;;23.53;21.03;;;6.40;99.90;;;;;;5073988;28;20178;-44
2021/05/03 00:26:15;;;;;;;22.77;20.30;;;6.30;99.90;;;;;;5073264;28;20281;-49
2021/05/03 00:28:41;;;;;;;22.27;19.47;;;6.30;99.90;;;;;;5073412;28;20637;-41
2021/05/03 00:31:07;;;;;;;23.43;20.93;;;6.30;99.90;;;;;;5073264;28;20182;-43
2021/05/03 00:33:32;;;;;;;24.67;22.17;;;6.30;99.90;;;;;;5073678;28;20252;-41
2021/05/03 00:35:58;;;;;;;24.90;22.30;;;6.30;99.90;;;;;;5073592;28;20261;-41
2021/05/03 00:38:24;;;;;;;26.10;23.40;;;6.20;99.90;;;;;;5071858;28;20604;-41
2021/05/03 00:40:50;;;;;;;24.70;22.10;;;6.10;99.90;;;;;;5072903;28;20585;-44
2021/05/03 00:43:20;;;;;;;24.00;21.50;;;6.00;99.90;;;;;;5072896;28;20178;-50
2021/05/03 00:45:49;;;;;;;24.33;21.73;;;6.00;99.90;;;;;;5076705;28;20278;-45
2021/05/03 00:48:15;;;;;;;24.00;21.50;;;6.00;99.90;;;;;;5076663;28;20691;-42
2021/05/03 00:50:42;;;;;;;23.93;21.40;;;6.20;99.90;;;;;;5076597;28;20179;-41
2021/05/03 00:53:08;;;;;;;23.53;21.13;;;6.30;99.90;;;;;;5076328;28;20214;-51
2021/05/03 00:55:34;;;;;;;23.20;20.80;;;6.40;99.90;;;;;;5076321;28;20239;-49
2021/05/03 00:58:03;;;;;;;23.90;21.40;;;6.40;99.90;;;;;;5076501;28;20684;-41
2021/05/03 01:00:29;;;;;;;24.07;21.43;;;6.40;99.90;;;;;;5076379;28;20554;-41
2021/05/03 01:02:54;;;;;;;24.40;21.90;;;6.30;99.90;;;;;;5076413;28;20185;-44
2021/05/03 01:05:20;;;;;;;25.87;23.17;;;6.30;99.90;;;;;;5076482;28;20174;-48
2021/05/03 01:07:47;;;;;;;24.10;21.50;;;6.20;99.90;;;;;;5076013;28;20197;-49
2021/05/03 01:10:13;;;;;;;24.83;22.33;;;6.10;99.90;;;;;;5074245;28;20642;-43
2021/05/03 01:12:39;;;;;;;25.30;22.70;;;6.10;99.90;;;;;;5074184;28;20267;-50
2021/05/03 01:15:10;;;;;;;25.83;23.13;;;6.00;99.90;;;;;;5074141;28;20228;-48
2021/05/03 01:17:36;;;;;;;25.33;22.73;;;6.00;99.90;;;;;;5076870;28;20205;-41
2021/05/03 01:20:13;;;;;;;26.23;23.43;;;6.00;99.90;;;;;;5076745;28;20228;-44
2021/05/03 01:22:39;;;;;;;25.83;23.07;;;6.00;99.90;;;;;;5075912;28;20556;-52
2021/05/03 01:25:07;;;;;;;26.23;23.53;;;6.00;99.90;;;;;;5076371;28;20257;-43
2021/05/03 01:27:36;;;;;;;25.00;22.30;;;5.90;99.90;;;;;;5076401;28;20187;-48
2021/05/03 01:30:06;;;;;;;26.03;23.27;;;5.90;99.90;;;;;;5075938;28;20171;-46
2021/05/03 01:32:32;;;;;;;25.90;23.10;;;5.90;99.90;;;;;;5075557;28;20615;-44
2021/05/03 01:34:58;;;;;;;24.77;22.17;;;5.90;99.90;;;;;;5075864;28;20623;-45
2021/05/03 01:37:24;;;;;;;24.27;21.67;;;6.10;99.90;;;;;;5076075;28;20210;-45
2021/05/03 01:39:49;;;;;;;23.97;21.40;;;6.20;99.90;;;;;;5076061;28;20257;-42
2021/05/03 01:42:15;;;;;;;24.17;21.57;;;6.20;99.90;;;;;;5075473;28;20198;-49
2021/05/03 01:44:42;;;;;;;25.70;23.00;;;6.20;99.90;;;;;;5076220;28;20170;-47
2021/05/03 01:47:08;;;;;;;26.37;23.57;;;6.40;99.90;;;;;;5075593;28;20198;-42
2021/05/03 01:49:34;;;;;;;26.23;23.53;;;6.50;99.90;;;;;;5075632;28;20162;-49
2021/05/03 01:52:00;;;;;;;25.63;23.00;;;6.60;99.90;;;;;;5075499;28;20194;-44
2021/05/03 01:54:27;;;;;;;24.47;21.93;;;6.60;99.90;;;;;;5074855;28;20242;-46
2021/05/03 01:56:52;;;;;;;24.33;21.73;;;6.50;99.90;;;;;;5075006;28;20183;-43
2021/05/03 01:59:18;;;;;;;24.43;21.83;;;6.50;99.90;;;;;;5075897;28;20186;-50
2021/05/03 02:01:44;;;;;;;23.97;20.90;;;6.50;99.90;;;;;;5075285;28;20175;-42
2021/05/03 02:04:09;;;;;;;23.90;21.43;;;6.50;99.90;;;;;;5075225;28;20181;-48
2021/05/03 02:06:39;;;;;;;25.17;22.57;;;6.50;99.90;;;;;;5075272;28;20195;-44
2021/05/03 02:09:11;;;;;;;24.97;22.27;;;6.50;99.90;;;;;;5075011;28;20300;-48
2021/05/03 02:11:39;;;;;;;25.43;22.73;;;6.50;99.90;;;;;;5075231;28;20206;-47
2021/05/03 02:14:05;;;;;;;24.90;22.20;;;6.50;99.90;;;;;;5075502;28;20647;-44
2021/05/03 02:16:31;;;;;;;27.07;24.17;;;6.40;99.90;;;;;;5074940;28;20193;-42
2021/05/03 02:18:57;;;;;;;26.37;23.23;;;6.40;99.90;;;;;;5075067;28;20623;-41
2021/05/03 02:21:23;;;;;;;28.03;25.07;;;6.40;99.90;;;;;;5074963;28;20174;-44
2021/05/03 02:23:48;;;;;;;24.83;22.17;;;6.40;99.90;;;;;;5075215;28;20174;-44
2021/05/03 02:26:15;;;;;;;25.57;22.83;;;6.40;99.90;;;;;;5074899;28;20198;-48
2021/05/03 02:28:40;;;;;;;26.67;23.67;;;6.40;99.90;;;;;;5075285;28;20265;-48
2021/05/03 02:31:06;;;;;;;24.73;22.13;;;6.30;99.90;;;;;;5074775;28;20265;-52
2021/05/03 02:33:32;;;;;;;25.10;22.50;;;6.30;99.90;;;;;;5074765;28;20284;-45
2021/05/03 02:35:59;;;;;;;23.53;21.03;;;6.30;99.90;;;;;;5074955;28;20190;-41
2021/05/03 02:38:25;;;;;;;23.87;21.47;;;6.30;99.90;;;;;;5074548;28;20246;-42
2021/05/03 02:40:51;;;;;;;23.40;21.00;;;6.30;99.90;;;;;;5075033;28;20622;-41
2021/05/03 02:43:17;;;;;;;23.93;21.40;;;6.30;99.90;;;;;;5057307;28;20178;-46
2021/05/03 02:45:42;;;;;;;23.63;21.13;;;6.30;99.90;;;;;;5074439;28;20614;-42
2021/05/03 02:48:08;;;;;;;22.37;20.07;;;6.30;99.90;;;;;;5074518;28;20211;-45
2021/05/03 02:50:33;;;;;;;22.73;20.40;;;6.30;99.90;;;;;;5074616;28;20182;-41
2021/05/03 02:52:59;;;;;;;24.83;21.47;;;6.40;99.90;;;;;;5074329;28;20199;-43
2021/05/03 02:55:25;;;;;;;24.07;21.13;;;6.40;99.90;;;;;;5074700;28;20177;-45
2021/05/03 02:57:51;;;;;;;25.03;22.33;;;6.40;99.90;;;;;;5074242;28;20577;-45
2021/05/03 03:00:33;;;;;;;25.93;23.13;;;6.40;99.90;;;;;;5074420;28;20202;-47
2021/05/03 03:02:59;;;;;;;25.47;22.43;;;6.40;99.90;;;;;;5074272;28;20244;-45
2021/05/03 03:05:25;;;;;;;24.67;21.97;;;6.30;99.90;;;;;;5074079;28;20284;-46
2021/05/03 03:07:52;;;;;;;26.37;23.53;;;6.30;99.90;;;;;;5074233;28;20682;-41
2021/05/03 03:10:21;;;;;;;26.10;23.17;;;6.10;99.90;;;;;;5074444;28;20166;-41
2021/05/03 03:12:47;;;;;;;26.97;24.07;;;6.10;99.90;;;;;;5073764;28;20198;-48
2021/05/03 03:15:15;;;;;;;28.60;25.50;;;6.10;99.90;;;;;;5073937;28;20173;-45
2021/05/03 03:17:45;;;;;;;28.43;25.37;;;6.20;99.90;;;;;;5074081;28;20277;-42
2021/05/03 03:20:11;;;;;;;27.17;24.27;;;6.10;99.90;;;;;;5074482;28;20257;-48
2021/05/03 03:22:36;;;;;;;28.27;24.80;;;6.20;99.90;;;;;;5073760;28;20224;-48
2021/05/03 03:25:03;;;;;;;28.00;24.00;;;6.20;99.90;;;;;;5074527;28;20575;-41
2021/05/03 03:27:29;;;;;;;26.37;22.70;;;6.20;99.90;;;;;;5074090;28;20194;-47
2021/05/03 03:29:54;;;;;;;25.10;22.40;;;6.20;99.90;;;;;;5074017;28;20175;-45
2021/05/03 03:32:20;;;;;;;27.13;23.57;;;6.20;99.90;;;;;;5072173;28;20217;-45
2021/05/03 03:34:46;;;;;;;26.30;22.47;;;6.20;99.90;;;;;;5073906;28;20216;-42
2021/05/03 03:37:11;;;;;;;28.50;25.50;;;6.10;99.90;;;;;;5073031;28;20197;-45
2021/05/03 03:39:37;;;;;;;28.93;25.47;;;6.10;99.90;;;;;;5073825;28;20171;-45
2021/05/03 03:42:02;;;;;;;27.23;24.27;;;6.10;99.90;;;;;;5073870;28;20174;-50
2021/05/03 03:44:28;;;;;;;33.20;22.47;;;6.00;99.90;;;;;;5070536;28;20179;-49
2021/05/03 03:46:53;;;;;;;25.57;22.87;;;6.00;99.90;;;;;;5062891;28;20569;-45
2021/05/03 03:49:19;;;;;;;25.40;22.57;;;5.90;99.90;;;;;;5053437;28;20175;-42
2021/05/03 03:51:44;;;;;;;22.17;19.80;;;5.70;99.90;;;;;;5055518;28;20171;-41
2021/05/03 03:54:10;;;;;;;23.90;21.50;;;5.70;99.90;;;;;;5062238;28;20551;-41
2021/05/03 03:56:36;;;;;;;24.93;22.33;;;5.60;99.90;;;;;;5061834;28;20190;-48
2021/05/03 03:59:01;;;;;;;24.03;21.47;;;5.60;99.90;;;;;;5061755;28;20171;-41
2021/05/03 04:01:30;;;;;;;19.57;17.63;;;5.50;99.90;;;;;;5063592;28;20171;-44
2021/05/03 04:04:01;;;;;;;18.33;16.53;;;5.50;99.90;;;;;;5063848;28;20171;-45
2021/05/03 04:06:40;;;;;;;19.13;17.13;;;5.50;99.90;;;;;;5062283;28;20198;-41
2021/05/03 04:24:57;;;;;;;16.43;14.83;;;5.70;99.90;;;;;;5057671;28;20208;-43
2021/05/03 04:27:22;;;;;;;39.63;17.30;;;5.60;99.90;;;;;;5056898;28;20667;-45
2021/05/03 04:29:48;;;;;;;19.13;17.20;;;5.70;99.90;;;;;;5056859;28;20176;-44
2021/05/03 04:32:13;;;;;;;18.70;16.80;;;5.80;99.90;;;;;;5056928;28;20639;-41
2021/05/03 04:34:39;;;;;;;18.53;16.70;;;5.80;99.90;;;;;;5057210;28;20214;-52
2021/05/03 04:37:04;;;;;;;30.87;17.93;;;5.70;99.90;;;;;;5056727;28;20294;-48
2021/05/03 04:39:30;;;;;;;20.43;18.33;;;5.50;99.90;;;;;;5057407;28;20206;-46
2021/05/03 04:41:56;;;;;;;19.47;17.47;;;5.50;99.90;;;;;;5056761;28;20167;-44
2021/05/03 04:44:22;;;;;;;19.60;17.57;;;5.50;99.90;;;;;;5056725;28;20293;-46
2021/05/03 04:46:47;;;;;;;21.07;16.77;;;5.60;99.90;;;;;;5038825;28;20416;-41
2021/05/03 04:49:13;;;;;;;18.57;16.50;;;5.60;99.90;;;;;;5057130;28;20175;-46
2021/05/03 04:51:38;;;;;;;29.43;16.50;;;5.60;99.90;;;;;;5056657;28;20182;-55
2021/05/03 04:54:04;;;;;;;24.90;16.83;;;5.60;99.90;;;;;;5057027;28;20714;-43
2021/05/03 04:56:29;;;;;;;23.07;18.10;;;5.70;99.90;;;;;;5056730;28;20202;-44
2021/05/03 04:58:55;;;;;;;95.37;24.00;;;5.60;99.90;;;;;;5056861;28;20175;-44
2021/05/03 05:01:21;;;;;;;18.03;16.23;;;5.50;99.90;;;;;;5056618;28;20175;-42
2021/05/03 05:03:46;;;;;;;18.70;16.80;;;5.60;99.90;;;;;;5056583;28;20175;-42
2021/05/03 05:06:12;;;;;;;49.57;21.07;;;5.70;99.90;;;;;;5056241;28;20245;-51
2021/05/03 05:08:37;;;;;;;86.57;20.97;;;5.70;99.90;;;;;;5056689;28;20190;-41
2021/05/03 05:11:03;;;;;;;31.50;20.17;;;5.70;99.90;;;;;;5056617;28;20281;-41
2021/05/03 05:13:28;;;;;;;105.37;27.70;;;5.70;99.90;;;;;;5056035;28;20225;-41
2021/05/03 05:15:54;;;;;;;21.93;19.50;;;5.70;99.90;;;;;;5038156;28;20587;-44
2021/05/03 05:18:20;;;;;;;23.37;20.97;;;5.90;99.90;;;;;;5056318;28;20172;-43
2021/05/03 05:20:45;;;;;;;166.43;30.40;;;6.00;99.90;;;;;;5055469;28;20171;-51
2021/05/03 05:23:11;;;;;;;54.10;23.60;;;6.10;99.90;;;;;;5055269;28;20601;-47
2021/05/03 05:25:37;;;;;;;22.73;20.33;;;6.10;99.90;;;;;;5054746;28;20293;-49
2021/05/03 05:28:03;;;;;;;64.80;24.00;;;6.10;99.90;;;;;;5056476;28;20642;-45
2021/05/03 05:30:29;;;;;;;30.60;20.57;;;6.10;99.90;;;;;;5055059;28;20175;-48
2021/05/03 05:32:55;;;;;;;41.90;24.10;;;6.20;99.90;;;;;;5055981;28;20203;-44
2021/05/03 05:35:20;;;;;;;23.33;20.93;;;6.10;99.90;;;;;;5056461;28;20175;-52
2021/05/03 05:37:46;;;;;;;24.80;22.10;;;6.20;99.90;;;;;;5058099;28;20683;-50
2021/05/03 05:40:12;;;;;;;25.23;21.83;;;6.20;99.90;;;;;;5072069;28;20209;-43
2021/05/03 05:42:37;;;;;;;24.13;21.20;;;6.20;99.90;;;;;;5072388;28;20170;-41
2021/05/03 05:45:04;;;;;;;24.73;22.13;;;6.30;99.90;;;;;;5058258;28;20182;-48
2021/05/03 05:47:29;;;;;;;22.33;19.93;;;6.40;99.90;;;;;;5064085;28;20194;-44
2021/05/03 05:49:55;;;;;;;24.67;22.10;;;6.50;99.90;;;;;;5075904;28;20262;-41
2021/05/03 05:52:21;;;;;;;37.23;25.50;;;6.80;99.90;;;;;;5060359;28;20175;-48
2021/05/03 05:54:47;;;;;;;92.90;27.67;;;6.90;99.90;;;;;;5056015;28;20175;-42
2021/05/03 05:57:12;;;;;;;23.93;21.43;;;6.80;99.90;;;;;;5055314;28;20194;-47
2021/05/03 05:59:38;;;;;;;23.57;21.17;;;6.80;99.90;;;;;;5055636;28;20167;-43
2021/05/03 06:02:03;;;;;;;24.20;21.60;;;6.80;99.90;;;;;;5055327;28;20175;-41
2021/05/03 06:04:29;;;;;;;24.40;21.80;;;6.90;99.90;;;;;;5069954;28;20175;-46
2021/05/03 06:06:54;;;;;;;23.60;21.10;;;8.80;99.90;;;;;;5075147;28;20201;-45
2021/05/03 06:09:20;;;;;;;25.50;21.77;;;6.80;99.90;;;;;;5075724;28;20178;-43
2021/05/03 06:11:46;;;;;;;25.73;22.83;;;6.80;99.90;;;;;;5075053;28;20179;-45
2021/05/03 06:14:11;;;;;;;33.57;22.87;;;6.70;99.90;;;;;;5075231;28;20295;-44
2021/05/03 06:16:37;;;;;;;24.57;21.93;;;6.70;99.90;;;;;;5071602;28;20230;-44
2021/05/03 06:19:03;;;;;;;26.27;23.47;;;6.70;99.90;;;;;;5064234;28;20179;-49
2021/05/03 06:21:28;;;;;;;25.13;22.50;;;6.80;99.90;;;;;;5036033;28;20174;-46
2021/05/03 06:23:54;;;;;;;25.97;23.17;;;6.80;99.90;;;;;;5056023;28;20258;-46
2021/05/03 06:26:20;;;;;;;24.70;22.20;;;6.90;99.90;;;;;;5056958;28;20198;-41
2021/05/03 06:28:45;;;;;;;24.77;22.20;;;7.20;99.90;;;;;;5054947;28;20178;-44
2021/05/03 06:31:11;;;;;;;25.30;22.70;;;7.60;99.90;;;;;;5055028;28;20577;-45
2021/05/03 06:33:37;;;;;;;25.97;22.93;;;8.00;99.90;;;;;;5073042;28;20234;-50
2021/05/03 06:36:03;;;;;;;25.20;22.10;;;8.20;99.90;;;;;;5073535;28;20225;-46
2021/05/03 06:38:28;;;;;;;25.37;22.70;;;8.10;99.90;;;;;;5072255;28;20315;-46
2021/05/03 06:40:54;;;;;;;25.63;22.83;;;8.00;99.90;;;;;;5072289;28;20170;-45
2021/05/03 06:43:19;;;;;;;26.63;23.73;;;7.80;99.90;;;;;;5073516;28;20228;-42
2021/05/03 06:45:45;;;;;;;27.93;25.00;;;7.80;99.90;;;;;;5073241;28;20208;-45
2021/05/03 06:48:12;;;;;;;28.97;24.83;;;7.80;99.90;;;;;;5040118;28;20178;-48
2021/05/03 06:50:43;;;;;;;27.67;24.70;;;7.90;99.90;;;;;;5074395;28;20208;-48
2021/05/03 06:53:08;;;;;;;24.43;21.83;;;8.00;99.90;;;;;;5057537;28;20205;-49
2021/05/03 06:55:34;;;;;;;27.47;24.50;;;8.00;99.90;;;;;;5074153;28;20186;-44
2021/05/03 06:57:59;;;;;;;29.30;26.03;;;8.10;99.90;;;;;;5074470;28;20311;-49
2021/05/03 07:00:25;;;;;;;29.00;25.90;;;8.20;99.90;;;;;;5074371;28;20178;-43
2021/05/03 07:02:51;;;;;;;30.70;27.47;;;8.30;99.90;;;;;;5074277;28;20190;-47
2021/05/03 07:05:17;;;;;;;28.47;25.40;;;8.30;99.90;;;;;;5074364;28;20185;-49
2021/05/03 07:07:43;;;;;;;27.33;24.63;;;8.20;99.90;;;;;;5074593;28;20271;-48
2021/05/03 07:10:10;;;;;;;26.17;23.47;;;8.40;99.90;;;;;;5074498;28;20610;-48
2021/05/03 07:12:47;;;;;;;25.83;23.23;;;8.50;99.90;;;;;;5074012;28;20236;-45
2021/05/03 07:15:13;;;;;;;26.20;23.60;;;8.50;99.90;;;;;;5074084;28;20170;-45
2021/05/03 07:17:39;;;;;;;27.83;24.97;;;8.40;99.90;;;;;;5068446;28;20214;-45
2021/05/03 07:20:07;;;;;;;26.67;23.97;;;8.50;99.90;;;;;;5074270;28;20173;-46
2021/05/03 07:22:33;;;;;;;26.60;23.90;;;8.70;99.90;;;;;;5072652;28;20239;-47
2021/05/03 07:25:00;;;;;;;26.50;23.80;;;8.80;99.90;;;;;;5073650;28;20162;-46
2021/05/03 07:27:25;;;;;;;26.00;23.20;;;8.80;99.90;;;;;;5073941;28;20204;-48
2021/05/03 07:29:51;;;;;;;26.77;24.07;;;8.70;99.90;;;;;;5074078;28;20174;-49
2021/05/03 07:32:16;;;;;;;25.97;23.37;;;8.70;99.90;;;;;;5074153;28;20167;-43
2021/05/03 07:34:42;;;;;;;27.80;24.77;;;8.70;99.90;;;;;;5073602;28;20205;-47
2021/05/03 07:37:07;;;;;;;26.20;23.50;;;8.50;99.90;;;;;;5073591;28;20191;-48
2021/05/03 07:39:34;;;;;;;23.77;21.40;;;8.60;99.90;;;;;;5073896;28;20175;-49
2021/05/03 07:42:00;;;;;;;24.50;22.00;;;8.80;99.90;;;;;;5073772;28;20167;-44
2021/05/03 07:44:26;;;;;;;25.63;23.10;;;8.60;99.90;;;;;;5073743;28;20174;-42
2021/05/03 07:46:52;;;;;;;23.67;21.27;;;8.50;99.90;;;;;;5073495;28;20244;-43
2021/05/03 07:49:17;;;;;;;25.30;22.73;;;8.60;99.90;;;;;;5073941;28;20170;-44
2021/05/03 07:51:43;;;;;;;24.73;22.13;;;8.50;99.90;;;;;;5073798;28;20626;-42
2021/05/03 07:54:09;;;;;;;23.23;20.93;;;8.50;99.90;;;;;;5077566;28;20240;-43
2021/05/03 07:56:35;;;;;;;24.07;21.53;;;8.40;99.90;;;;;;5077882;28;20190;-48
2021/05/03 07:59:00;;;;;;;22.50;20.37;;;8.50;99.90;;;;;;5077836;28;20178;-47
2021/05/03 08:01:26;;;;;;;23.37;21.07;;;8.70;99.90;;;;;;5077699;28;20182;-47
2021/05/03 08:03:51;;;;;;;23.23;20.93;;;8.90;99.90;;;;;;5077975;28;20175;-45
2021/05/03 08:06:17;;;;;;;20.00;17.93;;;9.30;99.90;;;;;;5077541;28;20678;-42
2021/05/03 08:08:47;;;;;;;20.53;18.47;;;9.40;99.90;;;;;;5077806;28;20618;-41
2021/05/03 08:11:15;;;;;;;18.87;16.97;;;9.60;99.90;;;;;;5077371;28;20209;-50
2021/05/03 08:13:43;;;;;;;16.93;15.23;;;9.50;99.90;;;;;;5077695;28;20201;-43
2021/05/03 08:16:12;;;;;;;19.57;17.57;;;9.40;99.90;;;;;;5076866;28;20688;-45
2021/05/03 08:18:39;;;;;;;19.33;17.33;;;9.30;99.90;;;;;;5077182;28;20300;-44
2021/05/03 08:21:05;;;;;;;17.37;15.63;;;9.30;99.90;;;;;;5076962;28;20175;-46
2021/05/03 08:23:31;;;;;;;17.20;15.50;;;9.30;99.90;;;;;;5077441;28;20235;-47
2021/05/03 08:25:56;;;;;;;19.70;17.70;;;9.40;99.90;;;;;;5077034;28;20276;-43
2021/05/03 08:28:22;;;;;;;18.23;16.00;;;9.70;99.90;;;;;;5077566;28;20220;-42
2021/05/03 08:30:50;;;;;;;19.33;17.33;;;9.90;99.90;;;;;;5059495;28;20520;-46
2021/05/03 08:33:17;;;;;;;18.90;15.87;;;10.00;99.90;;;;;;5076556;28;20216;-51
2021/05/03 08:35:43;;;;;;;15.90;14.30;;;9.90;99.90;;;;;;5059336;28;20632;-43
2021/05/03 08:38:10;;;;;;;14.90;13.40;;;10.00;99.90;;;;;;5076869;28;20288;-44
2021/05/03 08:40:36;;;;;;;13.23;11.93;;;10.30;99.90;;;;;;5077150;28;20174;-44
2021/05/03 08:43:03;;;;;;;14.13;12.23;;;10.40;99.90;;;;;;5058748;28;20516;-44
2021/05/03 08:45:30;;;;;;;12.97;11.53;;;10.50;99.90;;;;;;5077162;28;20175;-50
2021/05/03 08:48:05;;;;;;;12.17;10.97;;;10.70;99.90;;;;;;5076490;28;20178;-42
2021/05/03 08:51:36;;;;;;;13.33;12.00;;;10.50;99.90;;;;;;5076764;28;20611;-45
2021/05/03 08:53:39;;;;;;;11.13;10.03;;;10.50;99.90;;;;;;5059026;28;20637;-46
2021/05/03 08:56:05;;;;;;;12.40;11.20;;;10.30;99.90;;;;;;5076623;28;20297;-44
2021/05/03 08:58:31;;;;;;;12.67;11.37;;;10.20;99.90;;;;;;5076398;28;20594;-49
2021/05/03 09:00:57;;;;;;;12.80;11.50;;;10.20;99.90;;;;;;5075976;28;20303;-48
2021/05/03 09:03:23;;;;;;;12.17;10.93;;;10.20;99.90;;;;;;5076176;28;20209;-46
2021/05/03 09:05:49;;;;;;;12.57;11.27;;;10.30;99.90;;;;;;5076268;28;20677;-43
2021/05/03 09:08:25;;;;;;;12.03;10.67;;;10.60;99.90;;;;;;5074434;28;20167;-46
2021/05/03 09:10:52;;;;;;;12.00;10.80;;;10.80;99.90;;;;;;5073943;28;20174;-43
2021/05/03 09:13:26;;;;;;;12.83;11.07;;;10.80;99.90;;;;;;5073930;28;20853;-49
2021/05/03 09:16:10;;;;;;;10.50;9.20;;;11.00;99.90;;;;;;5074089;28;20193;-47
2021/05/03 09:18:37;;;;;;;9.30;8.20;;;11.40;99.90;;;;;;5074260;28;20182;-53
2021/05/03 09:21:03;;;;;;;10.13;9.13;;;11.70;99.90;;;;;;5074284;28;20170;-45
2021/05/03 09:23:29;;;;;;;9.63;8.00;;;11.90;99.90;;;;;;5075198;28;20171;-50
2021/05/03 09:25:55;;;;;;;7.97;7.17;;;11.80;99.90;;;;;;5076176;28;20213;-42
2021/05/03 09:28:28;;;;;;;6.80;6.10;;;11.50;99.90;;;;;;5076299;28;20170;-54
2021/05/03 09:30:56;;;;;;;6.87;6.13;;;11.20;99.90;;;;;;5076144;28;20252;-44
2021/05/03 09:33:22;;;;;;;8.63;6.93;;;11.00;99.90;;;;;;5076390;28;20197;-47
2021/05/03 09:36:01;;;;;;;6.20;5.53;;;10.80;99.90;;;;;;5076265;28;20542;-45
2021/05/03 09:38:40;;;;;;;7.27;5.60;;;10.70;99.90;;;;;;5075941;28;20174;-45
2021/05/03 09:41:20;;;;;;;5.17;4.63;;;10.80;99.90;;;;;;5075971;28;20198;-45
2021/05/03 09:44:03;;;;;;;5.37;4.70;;;10.90;99.90;;;;;;5076125;28;20649;-52
2021/05/03 09:46:47;;;;;;;6.93;5.43;;;10.90;99.90;;;;;;5075710;28;20208;-53
2021/05/03 09:49:16;;;;;;;5.80;5.20;;;11.20;99.90;;;;;;5076025;28;20196;-45
2021/05/03 09:51:47;;;;;;;7.07;5.43;;;11.60;99.90;;;;;;5075492;28;20170;-43
2021/05/03 09:54:22;;;;;;;6.10;4.70;;;11.80;99.90;;;;;;5076060;28;20197;-48
2021/05/03 09:56:50;;;;;;;5.53;4.60;;;11.90;99.90;;;;;;5075608;28;20189;-46
2021/05/03 09:59:34;;;;;;;6.00;4.60;;;12.00;99.90;;;;;;5075702;28;20623;-48
2021/05/03 10:02:18;;;;;;;5.17;4.67;;;12.10;99.90;;;;;;5075119;28;20707;-49
2021/05/03 10:04:50;;;;;;;5.40;4.83;;;12.20;99.90;;;;;;5075867;28;20265;-46
2021/05/03 10:07:20;;;;;;;4.90;4.07;;;12.30;99.90;;;;;;5075120;28;20202;-53
2021/05/03 10:10:11;;;;;;;4.73;4.00;;;12.30;99.90;;;;;;5075432;28;20804;-42
2021/05/03 10:12:36;;;;;;;3.80;3.50;;;12.40;99.90;;;;;;5075114;28;20691;-44
2021/05/03 10:15:08;;;;;;;6.13;4.40;;;12.30;99.90;;;;;;5074829;28;20163;-47
2021/05/03 10:17:36;;;;;;;4.37;3.97;;;12.20;99.90;;;;;;5056976;28;20195;-44
2021/05/03 10:20:04;;;;;;;5.30;4.10;;;12.20;99.90;;;;;;5075413;28;20166;-45
2021/05/03 10:22:30;;;;;;;4.80;4.23;;;11.90;99.90;;;;;;5074890;28;20162;-52
2021/05/03 10:25:03;;;;;;;7.20;4.20;;;11.70;99.90;;;;;;5075348;28;20244;-47
2021/05/03 10:27:30;;;;;;;5.00;4.50;;;11.50;99.90;;;;;;5075305;28;20592;-44
2021/05/03 10:30:13;;;;;;;5.77;4.73;;;11.40;99.90;;;;;;5075323;28;20179;-48
2021/05/03 10:32:40;;;;;;;5.30;4.80;;;11.40;99.90;;;;;;5074667;28;20168;-50
2021/05/03 10:35:30;;;;;;;5.77;5.23;;;11.30;99.90;;;;;;5075102;28;20174;-44
2021/05/03 10:37:57;;;;;;;7.47;6.77;;;11.10;99.90;;;;;;5074750;28;20585;-44
2021/05/03 10:40:22;;;;;;;7.73;6.97;;;10.60;99.90;;;;;;5075103;28;20614;-48
2021/05/03 10:43:07;;;;;;;7.63;6.93;;;10.30;99.90;;;;;;5074588;28;20250;-52
2021/05/03 10:48:34;;;;;;;8.17;6.87;;;10.10;99.90;;;;;;5073813;28;20185;-45
2021/05/03 10:51:01;;;;;;;7.93;7.13;;;10.00;99.90;;;;;;5074004;28;20639;-49
2021/05/03 10:53:32;;;;;;;7.10;6.33;;;10.00;99.90;;;;;;5073379;28;20240;-44
2021/05/03 10:56:04;;;;;;;6.63;6.03;;;10.10;99.90;;;;;;5074348;28;20191;-48
2021/05/03 10:58:30;;;;;;;7.20;6.47;;;10.40;99.90;;;;;;5074172;28;20174;-45
2021/05/03 11:01:00;;;;;;;7.10;6.40;;;10.50;99.90;;;;;;5073966;28;20250;-48
2021/05/03 11:03:54;;;;;;;9.47;6.27;;;10.80;99.90;;;;;;5072948;28;20248;-42
2021/05/03 11:06:38;;;;;;;7.20;6.50;;;11.20;99.90;;;;;;5074361;28;20197;-46
2021/05/03 11:09:29;;;;;;;6.63;5.97;;;11.60;99.90;;;;;;5073163;28;20189;-49
2021/05/03 11:11:55;;;;;;;6.60;6.00;;;11.80;99.90;;;;;;5073878;28;20752;-50
2021/05/03 11:14:22;;;;;;;7.00;6.30;;;11.90;99.90;;;;;;5074291;28;20288;-42
2021/05/03 11:16:53;;;;;;;5.97;5.43;;;12.20;99.90;;;;;;5074267;28;20197;-53
2021/05/03 11:19:53;;;;;;;6.53;5.70;;;12.70;99.90;;;;;;5074466;28;20254;-43
2021/05/03 11:22:22;;;;;;;5.93;5.40;;;13.10;99.90;;;;;;5073918;28;20172;-44
2021/05/03 11:27:28;;;;;;;6.40;5.80;;;12.70;99.90;;;;;;5073865;28;20190;-44
2021/05/03 11:32:40;;;;;;;6.53;5.20;;;13.00;99.90;;;;;;5073942;28;20690;-45
2021/05/03 11:35:37;;;;;;;6.20;5.60;;;13.30;99.90;;;;;;5073958;28;20195;-48
2021/05/03 11:40:59;;;;;;;5.33;4.83;;;13.30;99.90;;;;;;5074357;28;20258;-41
2021/05/03 11:46:26;;;;;;;5.33;4.87;;;13.30;99.90;;;;;;5074204;28;20209;-44
2021/05/03 11:48:56;;;;;;;5.27;4.53;;;13.30;99.90;;;;;;5074328;28;20189;-43
2021/05/03 11:51:22;;;;;;;5.93;4.80;;;13.10;99.90;;;;;;5074059;28;20713;-42
2021/05/03 11:53:49;;;;;;;5.03;4.57;;;12.80;99.40;;;;;;5073765;28;20249;-49
2021/05/03 11:56:27;;;;;;;5.10;4.60;;;12.60;99.00;;;;;;5073837;28;20236;-45
2021/05/03 11:58:56;;;;;;;6.53;5.03;;;12.40;99.90;;;;;;5074149;28;20214;-48
2021/05/03 12:01:24;;;;;;;5.80;4.50;;;12.60;99.90;;;;;;5073851;28;20187;-43
2021/05/03 12:03:51;;;;;;;5.50;5.00;;;12.90;99.90;;;;;;5074067;28;20180;-41
2021/05/03 12:06:35;;;;;;;5.90;4.63;;;13.10;99.90;;;;;;5073628;28;20235;-46
2021/05/03 12:09:04;;;;;;;5.07;4.57;;;13.30;99.90;;;;;;5073796;28;20206;-45
2021/05/03 12:11:30;;;;;;;5.50;5.00;;;13.50;99.30;;;;;;5073418;28;20269;-42
2021/05/03 12:13:58;;;;;;;6.87;4.90;;;13.70;99.90;;;;;;5073537;28;20288;-45
2021/05/03 12:16:38;;;;;;;5.50;5.00;;;14.00;99.90;;;;;;5073298;28;20201;-43
2021/05/03 12:19:18;;;;;;;5.47;4.93;;;14.20;97.50;;;;;;5073564;28;20182;-45
2021/05/03 12:21:45;;;;;;;7.63;4.70;;;14.30;99.90;;;;;;5073158;28;20186;-50
2021/05/03 12:24:19;;;;;;;5.57;5.07;;;14.40;98.30;;;;;;5073894;28;20188;-45
2021/05/03 12:26:58;;;;;;;5.93;5.33;;;13.90;96.60;;;;;;5073804;28;20220;-50
2021/05/03 12:29:26;;;;;;;5.00;4.50;;;13.40;97.80;;;;;;5073295;28;20184;-45
2021/05/03 12:31:52;;;;;;;4.97;4.50;;;13.60;99.90;;;;;;5073150;28;20238;-44
2021/05/03 12:34:22;;;;;;;5.47;4.97;;;14.00;99.90;;;;;;5073651;28;20206;-43
2021/05/03 12:37:09;;;;;;;6.40;4.67;;;14.20;99.50;;;;;;5073189;28;20199;-44
2021/05/03 12:39:37;;;;;;;5.33;4.83;;;14.30;99.90;;;;;;5074885;28;20679;-50
2021/05/03 12:42:12;;;;;;;6.87;5.57;;;14.30;99.90;;;;;;5076811;28;20647;-45
2021/05/03 12:44:49;;;;;;;5.80;5.13;;;14.10;99.50;;;;;;5077314;28;20208;-44
2021/05/03 12:47:44;;;;;;;5.70;5.07;;;14.00;99.70;;;;;;5077312;28;20203;-46
2021/05/03 12:50:33;;;;;;;5.97;5.37;;;13.80;98.50;;;;;;5077090;28;20187;-48
2021/05/03 13:01:30;;;;;;;6.17;5.57;;;12.30;99.90;;;;;;5076878;28;20259;-45
2021/05/03 13:09:25;;;;;;;7.77;5.93;;;11.90;99.90;;;;;;5076484;28;20178;-45
2021/05/03 13:29:18;;;;;;;5.67;5.17;;;13.40;99.90;;;;;;5065974;28;20195;-44
2021/05/03 13:31:52;;;;;;;8.07;5.23;;;13.90;99.90;;;;;;5079498;28;20269;-48
2021/05/03 13:34:19;;;;;;;6.17;5.10;;;14.50;99.90;;;;;;5088973;28;20202;-52
2021/05/03 13:36:46;;;;;;;5.77;5.27;;;14.90;98.80;;;;;;5086003;28;20276;-45
2021/05/03 13:39:13;;;;;;;6.20;5.60;;;15.20;98.00;;;;;;5087202;28;20189;-46
2021/05/03 13:41:40;;;;;;;8.13;5.80;;;15.20;98.80;;;;;;5088721;28;20243;-54
2021/05/03 13:44:07;;;;;;;5.87;5.23;;;15.00;99.20;;;;;;5073448;28;20203;-52
2021/05/03 13:46:33;;;;;;;5.57;5.07;;;14.40;97.70;;;;;;5075487;28;20202;-50